Disclaimer

Please do not use the information listed here in-flight or in-navigation, as they are not provided to us by the airports but are provided by volunteers, so they might be outdated.

Search


Regions


Airport information page

Radio informations:
Melbourne Center - 120.75 MHz
Common traffic adv. frequency (CTAF) - 126.7 MHz

Airport informations:
Latitude: 36° 54' 31.00" S
Longitude: 149° 54' 05.00" E
Elevation: 7 feet - 2 meters
Operating hours: N/A
Operating agency: Civil government, landing fees and diplomatic clearance may be required
Timezone: UTC+10(+11DT)
Fuel: Jet A1, without icing nhibitor.

100/130 MIL Spec, low lead, aviation gasoline (BLUE)

Runway information:
03/21 - 5256 x 98 feet< - >1602 x 30 meters

Recent METARs:
YMER 142000Z AUTO 18003KT 9999 // OVC045 15/13 Q1018
YMER 142100Z AUTO 22005KT 9999 // OVC049 15/13 Q1019
YMER 142100Z AUTO 22005KT 9999 // OVC049 15/13 Q1019

Airport on the map: